createdAt,value
2022-11-22T00:00:37.254Z,99722.34
2022-11-22T00:03:04.323Z,99720.00
2022-11-22T00:05:31.556Z,99715.31
2022-11-22T00:07:58.602Z,99706.47
2022-11-22T00:10:25.858Z,99719.81
2022-11-22T00:12:53.871Z,99705.25
2022-11-22T00:15:20.887Z,99721.94
2022-11-22T00:17:48.051Z,99691.47
2022-11-22T00:20:15.269Z,99708.31
2022-11-22T00:22:44.778Z,99702.69
2022-11-22T00:25:13.207Z,99692.25
2022-11-22T00:27:40.568Z,99690.75
2022-11-22T00:30:08.527Z,99675.13
2022-11-22T00:32:35.651Z,99677.81
2022-11-22T00:35:02.852Z,99696.19
2022-11-22T00:37:30.349Z,99688.59
2022-11-22T00:39:57.324Z,99692.38
2022-11-22T00:42:24.297Z,99685.41
2022-11-22T00:44:51.269Z,99649.59
2022-11-22T00:47:18.202Z,99682.78
2022-11-22T00:49:45.171Z,99659.81
2022-11-22T00:52:12.139Z,99667.69
2022-11-22T00:54:39.150Z,99669.66
2022-11-22T00:57:06.138Z,99664.50
2022-11-22T00:59:33.159Z,99655.41
2022-11-22T01:02:00.169Z,99650.69
2022-11-22T01:04:27.144Z,99652.38
2022-11-22T01:06:54.124Z,99652.38
2022-11-22T01:09:23.363Z,99645.09
2022-11-22T01:11:50.960Z,99649.13
2022-11-22T01:14:18.361Z,99639.94
2022-11-22T01:16:46.341Z,99633.75
2022-11-22T01:19:13.321Z,99643.28
2022-11-22T01:21:59.126Z,99636.13
2022-11-22T01:24:26.138Z,99617.06
2022-11-22T01:26:53.154Z,99631.75
2022-11-22T01:29:20.095Z,99626.91
2022-11-22T01:31:47.080Z,99620.53
2022-11-22T01:34:14.058Z,99622.66
2022-11-22T01:36:41.177Z,99628.56
2022-11-22T01:39:08.243Z,99619.63
2022-11-22T01:41:35.681Z,99616.28
2022-11-22T01:44:41.647Z,99621.72
2022-11-22T01:47:23.342Z,99618.84
2022-11-22T01:50:02.083Z,99613.13
2022-11-22T01:52:32.789Z,99590.53
2022-11-22T01:55:06.682Z,99601.75
2022-11-22T01:57:38.786Z,99599.75
2022-11-22T02:00:09.630Z,99580.16
2022-11-22T02:02:51.873Z,99583.13
2022-11-22T02:05:23.476Z,99579.25
2022-11-22T02:08:06.253Z,99575.97
2022-11-22T02:10:37.539Z,99563.88
2022-11-22T02:13:06.767Z,99562.72
2022-11-22T02:15:54.528Z,99567.03
2022-11-22T02:18:21.643Z,99558.56
2022-11-22T02:20:48.763Z,99546.72
2022-11-22T02:23:40.195Z,99554.44
2022-11-22T02:26:07.369Z,99543.16
2022-11-22T02:28:37.625Z,99535.06
2022-11-22T02:31:04.890Z,99525.56
2022-11-22T02:33:32.223Z,99519.56
2022-11-22T02:35:59.691Z,99516.06
2022-11-22T02:38:32.839Z,99516.31
2022-11-22T02:41:07.593Z,99516.72
2022-11-22T02:43:47.372Z,99515.75
2022-11-22T02:46:20.718Z,99509.88
2022-11-22T02:48:47.879Z,99506.97
2022-11-22T02:51:20.139Z,99507.16
2022-11-22T02:53:49.499Z,99504.59
2022-11-22T02:56:17.368Z,99488.28
2022-11-22T02:58:44.824Z,99492.94
2022-11-22T03:01:12.870Z,99494.97
2022-11-22T03:03:40.067Z,99486.34
2022-11-22T03:06:07.062Z,99484.03
2022-11-22T03:08:34.056Z,99463.88
2022-11-22T03:11:01.136Z,99469.53
2022-11-22T03:13:28.138Z,99459.72
2022-11-22T03:15:55.110Z,99472.78
2022-11-22T03:18:22.528Z,99457.22
2022-11-22T03:20:49.504Z,99450.41
2022-11-22T03:23:16.570Z,99461.72
2022-11-22T03:25:43.567Z,99449.00
2022-11-22T03:28:11.279Z,99446.06
2022-11-22T03:30:42.002Z,99439.66
2022-11-22T03:33:09.804Z,99450.91
2022-11-22T03:35:37.341Z,99409.31
2022-11-22T03:38:04.667Z,99404.34
2022-11-22T03:40:31.914Z,99415.63
2022-11-22T03:43:01.236Z,99430.78
2022-11-22T03:45:28.878Z,99416.31
2022-11-22T03:47:57.242Z,99427.47
2022-11-22T03:50:25.037Z,99429.97
2022-11-22T03:52:52.040Z,99418.31
2022-11-22T03:55:19.121Z,99437.34
2022-11-22T03:57:46.196Z,99385.53
2022-11-22T04:00:13.931Z,99392.69
2022-11-22T04:02:41.911Z,99426.78
2022-11-22T04:05:08.970Z,99397.44
2022-11-22T04:07:36.216Z,99397.50
2022-11-22T04:10:04.464Z,99409.31
2022-11-22T04:12:31.498Z,99384.88
2022-11-22T04:15:07.739Z,99389.19
2022-11-22T04:17:48.628Z,99386.94
2022-11-22T04:20:40.563Z,99388.47
2022-11-22T04:23:11.794Z,99375.38
2022-11-22T04:25:42.140Z,99370.38
2022-11-22T04:28:12.077Z,99370.91
2022-11-22T04:30:57.554Z,99385.53
2022-11-22T04:33:25.071Z,99377.88
2022-11-22T04:35:52.767Z,99353.44
2022-11-22T04:38:20.617Z,99356.19
2022-11-22T04:40:47.831Z,99331.56
2022-11-22T04:43:51.151Z,99322.66
2022-11-22T04:46:18.147Z,99342.09
2022-11-22T04:48:45.109Z,99353.38
2022-11-22T04:51:33.086Z,99360.16
2022-11-22T04:54:00.096Z,99356.94
2022-11-22T04:56:27.096Z,99361.63
2022-11-22T04:58:54.543Z,99354.72
2022-11-22T05:01:22.109Z,99337.91
2022-11-22T05:03:49.199Z,99351.03
2022-11-22T05:06:16.449Z,99340.53
2022-11-22T05:08:44.476Z,99315.06
2022-11-22T05:11:11.970Z,99321.81
2022-11-22T05:13:41.289Z,99305.03
2022-11-22T05:16:11.503Z,99313.25
2022-11-22T05:18:38.808Z,99304.44
2022-11-22T05:21:07.777Z,99287.28
2022-11-22T05:23:53.706Z,99286.28
2022-11-22T05:26:31.935Z,99277.03
2022-11-22T05:29:03.770Z,99285.81
2022-11-22T05:31:33.787Z,99304.22
2022-11-22T05:34:01.682Z,99282.22
2022-11-22T05:36:31.880Z,99305.38
2022-11-22T05:38:59.077Z,99287.47
2022-11-22T05:41:26.493Z,99269.59
2022-11-22T05:43:57.360Z,99291.97
2022-11-22T05:46:26.935Z,99274.75
2022-11-22T05:48:56.288Z,99275.53
2022-11-22T05:51:30.567Z,99276.25
2022-11-22T05:54:00.902Z,99270.72
2022-11-22T05:56:27.899Z,99263.34
2022-11-22T05:58:54.914Z,99271.81
2022-11-22T06:01:24.189Z,99249.97
2022-11-22T06:03:51.823Z,99252.34
2022-11-22T06:06:20.275Z,99236.97
2022-11-22T06:08:48.601Z,99211.34
2022-11-22T06:11:23.695Z,99239.00
2022-11-22T06:13:54.627Z,99220.19
2022-11-22T06:16:22.031Z,99239.44
2022-11-22T06:18:49.822Z,99245.78
2022-11-22T06:21:19.552Z,99218.13
2022-11-22T06:23:46.953Z,99223.13
2022-11-22T06:26:16.605Z,99254.09
2022-11-22T06:28:44.455Z,99235.22
2022-11-22T06:31:22.464Z,99237.16
2022-11-22T06:33:50.122Z,99231.53
2022-11-22T06:36:23.325Z,99242.91
2022-11-22T06:38:50.556Z,99221.53
2022-11-22T06:41:20.396Z,99211.53
2022-11-22T06:43:49.664Z,99205.72
2022-11-22T06:46:22.438Z,99193.94
2022-11-22T06:48:50.182Z,99213.56
2022-11-22T06:51:19.930Z,99217.97
2022-11-22T06:53:49.028Z,99207.97
2022-11-22T06:56:30.102Z,99206.91
2022-11-22T06:58:57.640Z,99193.97
2022-11-22T07:01:27.121Z,99201.22
2022-11-22T07:03:58.300Z,99199.13
2022-11-22T07:06:27.958Z,99184.03
2022-11-22T07:08:55.405Z,99207.22
2022-11-22T07:11:31.019Z,99208.94
2022-11-22T07:14:05.376Z,99196.56
2022-11-22T07:16:36.253Z,99203.28
2022-11-22T07:19:03.522Z,99191.41
2022-11-22T07:21:30.690Z,99191.19
2022-11-22T07:23:57.716Z,99188.31
2022-11-22T07:26:26.071Z,99187.50
2022-11-22T07:28:53.169Z,99191.00
2022-11-22T07:31:20.605Z,99190.69
2022-11-22T07:33:47.716Z,99179.81
2022-11-22T07:36:22.191Z,99195.63
2022-11-22T07:38:50.306Z,99174.13
2022-11-22T07:41:19.170Z,99173.31
2022-11-22T07:43:47.136Z,99182.50
2022-11-22T07:46:35.100Z,99173.59
2022-11-22T07:49:02.791Z,99177.94
2022-11-22T07:51:30.161Z,99160.16
2022-11-22T07:53:58.041Z,99150.84
2022-11-22T07:56:25.547Z,99134.56
2022-11-22T07:58:53.320Z,99134.28
2022-11-22T08:01:21.654Z,99165.72
2022-11-22T08:03:48.793Z,99151.22
2022-11-22T08:06:15.992Z,99154.03
2022-11-22T08:08:43.314Z,99128.03
2022-11-22T08:11:11.475Z,99160.94
2022-11-22T08:13:39.111Z,99159.91
2022-11-22T08:16:09.759Z,99172.34
2022-11-22T08:18:37.944Z,99155.72
2022-11-22T08:21:10.395Z,99160.03
2022-11-22T08:23:38.350Z,99168.75
2022-11-22T08:26:06.794Z,99158.00
2022-11-22T08:28:33.838Z,99152.81
2022-11-22T08:31:04.239Z,99156.91
2022-11-22T08:33:31.256Z,99165.22
2022-11-22T08:35:58.487Z,99156.63
2022-11-22T08:38:25.622Z,99155.50
2022-11-22T08:40:52.708Z,99150.72
2022-11-22T08:43:20.287Z,99154.63
2022-11-22T08:45:57.928Z,99144.84
2022-11-22T08:48:26.496Z,99139.19
2022-11-22T08:50:59.655Z,99141.66
2022-11-22T08:53:27.008Z,99116.41
2022-11-22T08:55:54.799Z,99129.16
2022-11-22T08:58:22.832Z,99113.16
2022-11-22T09:00:49.804Z,99127.28
2022-11-22T09:03:16.778Z,99130.59
2022-11-22T09:08:34.369Z,99125.31
2022-11-22T09:11:15.101Z,99133.41
2022-11-22T09:13:42.762Z,99104.84
2022-11-22T09:16:13.010Z,99129.03
2022-11-22T09:18:40.805Z,99121.00
2022-11-22T09:21:11.015Z,99112.00
2022-11-22T09:23:38.367Z,99109.44
2022-11-22T09:26:11.206Z,99111.31
2022-11-22T09:28:38.359Z,99112.00
2022-11-22T09:31:13.394Z,99114.22
2022-11-22T09:33:42.141Z,99103.94
2022-11-22T09:36:12.206Z,99111.63
2022-11-22T09:38:39.505Z,99104.13
2022-11-22T09:41:41.746Z,99090.72
2022-11-22T09:44:33.031Z,99113.34
2022-11-22T09:47:16.689Z,99098.72
2022-11-22T09:50:11.646Z,99108.19
2022-11-22T09:52:54.281Z,99116.13
2022-11-22T09:55:30.884Z,99107.13
2022-11-22T09:58:30.787Z,99098.75
2022-11-22T10:01:18.139Z,99098.97
2022-11-22T10:03:51.545Z,99076.09
2022-11-22T10:06:24.468Z,99100.44
2022-11-22T10:09:18.859Z,99104.16
2022-11-22T10:11:57.921Z,99099.91
2022-11-22T10:14:49.928Z,99104.09
2022-11-22T10:17:36.297Z,99087.78
2022-11-22T10:20:07.718Z,99071.34
2022-11-22T10:22:35.589Z,99091.75
2022-11-22T10:25:34.928Z,99083.72
2022-11-22T10:28:16.603Z,99071.56
2022-11-22T10:30:54.416Z,99082.78
2022-11-22T10:33:29.518Z,99084.72
2022-11-22T10:36:14.844Z,99079.06
2022-11-22T10:38:50.543Z,99074.06
2022-11-22T10:41:49.223Z,99058.03
2022-11-22T10:44:35.778Z,99067.63
2022-11-22T10:47:08.691Z,99066.75
2022-11-22T10:49:46.180Z,99064.41
2022-11-22T10:52:34.120Z,99042.38
2022-11-22T10:55:23.386Z,99033.75
2022-11-22T10:57:53.082Z,99054.66
2022-11-22T11:00:22.784Z,99054.28
2022-11-22T11:03:14.266Z,99045.78
2022-11-22T11:09:12.462Z,99051.66
2022-11-22T11:11:27.452Z,99032.81
2022-11-22T11:13:59.095Z,99048.88
2022-11-22T11:16:31.669Z,99042.72
2022-11-22T11:19:11.201Z,99029.84
2022-11-22T11:21:38.208Z,99027.38
2022-11-22T11:24:19.964Z,99033.75
2022-11-22T11:26:59.695Z,99033.03
2022-11-22T11:29:38.005Z,99029.53
2022-11-22T11:32:16.778Z,99032.91
2022-11-22T11:34:53.604Z,99029.53
2022-11-22T11:37:26.860Z,99040.13
2022-11-22T11:39:53.866Z,99016.06
2022-11-22T11:42:27.909Z,99035.78
2022-11-22T11:45:13.957Z,99039.19
2022-11-22T11:47:40.944Z,99023.50
2022-11-22T11:50:24.558Z,99020.31
2022-11-22T11:53:20.504Z,99025.25
2022-11-22T11:55:47.491Z,99037.50
2022-11-22T11:58:24.515Z,99022.88
2022-11-22T12:00:51.813Z,99023.00
2022-11-22T12:03:20.490Z,99000.72
2022-11-22T12:05:47.464Z,99028.28
2022-11-22T12:08:31.682Z,99021.00
2022-11-22T12:11:04.744Z,99022.72
2022-11-22T12:14:12.428Z,99018.94
2022-11-22T12:16:38.421Z,99013.81
2022-11-22T12:19:29.879Z,99018.50
2022-11-22T12:22:03.083Z,99027.94
2022-11-22T12:27:17.261Z,98992.72
2022-11-22T12:29:44.657Z,99015.34
2022-11-22T12:32:37.019Z,99004.25
2022-11-22T12:35:19.775Z,99015.81
2022-11-22T12:37:55.608Z,99012.28
2022-11-22T12:40:43.185Z,99005.47
2022-11-22T12:43:24.739Z,99000.00
2022-11-22T12:46:17.107Z,98981.28
2022-11-22T12:48:56.047Z,98994.47
2022-11-22T12:51:42.660Z,98993.44
2022-11-22T12:54:19.393Z,99003.31
2022-11-22T12:56:49.200Z,99003.31
2022-11-22T12:59:45.758Z,99009.13
2022-11-22T13:02:38.784Z,98997.69
2022-11-22T13:05:24.468Z,99007.78
2022-11-22T13:08:00.324Z,99006.50
2022-11-22T13:11:00.990Z,99002.59
2022-11-22T13:13:33.444Z,99001.94
2022-11-22T13:16:06.201Z,99008.78
2022-11-22T13:18:44.087Z,99000.84
2022-11-22T13:21:29.756Z,99003.09
2022-11-22T13:24:10.772Z,99002.88
2022-11-22T13:26:54.692Z,99005.63
2022-11-22T13:29:28.325Z,98994.09
2022-11-22T13:32:16.294Z,99003.78
2022-11-22T13:35:01.640Z,99006.03
2022-11-22T13:37:34.121Z,98996.03
2022-11-22T13:40:16.445Z,99000.50
2022-11-22T13:42:43.787Z,98991.75
2022-11-22T13:45:13.848Z,99008.13
2022-11-22T13:47:44.188Z,98995.53
2022-11-22T13:50:42.222Z,98999.66
2022-11-22T13:53:30.612Z,99019.09
2022-11-22T13:56:18.749Z,98988.16
2022-11-22T13:58:51.831Z,98992.22
2022-11-22T14:01:34.585Z,98987.97
2022-11-22T14:04:17.032Z,98992.56
2022-11-22T14:07:05.635Z,98992.94
2022-11-22T14:09:34.536Z,98997.28
2022-11-22T14:12:10.678Z,98996.34
2022-11-22T14:15:15.499Z,99007.06
2022-11-22T14:18:28.836Z,98993.03
2022-11-22T14:21:13.682Z,98988.97
2022-11-22T14:24:15.848Z,98987.88
2022-11-22T14:27:24.067Z,98994.31
2022-11-22T14:30:01.985Z,98994.38
2022-11-22T14:32:49.708Z,98993.34
2022-11-22T14:35:26.372Z,98977.34
2022-11-22T14:38:04.093Z,98974.88
2022-11-22T14:40:38.161Z,98980.16
2022-11-22T14:43:21.993Z,98970.75
2022-11-22T14:45:52.561Z,98975.69
2022-11-22T14:48:28.941Z,98981.09
2022-11-22T14:51:07.103Z,98975.34
2022-11-22T14:53:49.061Z,98974.81
2022-11-22T14:56:22.796Z,98963.06
2022-11-22T14:59:18.151Z,98962.63
2022-11-22T15:02:01.149Z,98969.78
2022-11-22T15:09:17.453Z,98974.94
2022-11-22T15:09:18.204Z,98973.81
2022-11-22T15:11:14.072Z,98971.03
2022-11-22T15:14:02.773Z,98963.63
2022-11-22T15:59:46.951Z,98955.59
2022-11-22T16:02:29.805Z,98969.47
2022-11-22T16:06:07.267Z,98966.88
2022-11-22T16:07:49.145Z,98964.75
2022-11-22T16:10:39.779Z,98957.22
2022-11-22T16:13:18.892Z,98965.16
2022-11-22T16:16:12.126Z,98955.84
2022-11-22T16:18:40.473Z,98963.66
2022-11-22T16:21:11.280Z,98970.03
2022-11-22T16:23:42.866Z,98954.44
2022-11-22T16:26:29.504Z,98966.38
2022-11-22T16:29:26.164Z,98960.75
2022-11-22T16:32:03.536Z,98975.19
2022-11-22T16:34:30.669Z,98966.16
2022-11-22T16:36:58.054Z,98976.50
2022-11-22T16:39:25.045Z,98973.31
2022-11-22T16:41:53.073Z,98951.94
2022-11-22T16:44:21.639Z,98950.44
2022-11-22T16:46:48.718Z,98955.00
2022-11-22T16:49:21.490Z,98954.44
2022-11-22T16:51:50.770Z,98921.41
2022-11-22T16:54:20.330Z,98945.19
2022-11-22T16:56:47.667Z,98945.13
2022-11-22T16:59:14.877Z,98945.88
2022-11-22T17:01:43.558Z,98949.13
2022-11-22T17:04:22.431Z,98943.25
2022-11-22T17:06:49.881Z,98945.16
2022-11-22T17:09:16.954Z,98918.09
2022-11-22T17:11:44.830Z,98938.53
2022-11-22T17:14:15.331Z,98942.50
2022-11-22T17:16:43.182Z,98945.63
2022-11-22T17:19:30.267Z,98933.19
2022-11-22T17:21:57.302Z,98933.47
2022-11-22T17:24:24.366Z,98929.78
2022-11-22T17:26:51.437Z,98936.22
2022-11-22T17:29:48.828Z,98928.22
2022-11-22T17:32:06.706Z,98930.78
2022-11-22T17:34:33.970Z,98931.41
2022-11-22T17:37:02.619Z,98922.81
2022-11-22T17:39:29.954Z,98927.50
2022-11-22T17:41:57.221Z,98936.72
2022-11-22T17:44:24.331Z,98953.69
2022-11-22T17:46:51.314Z,98948.28
2022-11-22T17:49:18.330Z,98951.50
2022-11-22T17:51:46.855Z,98944.63
2022-11-22T17:54:13.868Z,98939.31
2022-11-22T17:56:40.919Z,98956.03
2022-11-22T17:59:07.951Z,98949.69
2022-11-22T18:01:36.922Z,98943.47
2022-11-22T18:04:04.091Z,98934.06
2022-11-22T18:06:31.471Z,98957.00
2022-11-22T18:09:00.898Z,98955.03
2022-11-22T18:11:28.518Z,98953.03
2022-11-22T18:13:55.514Z,98942.47
2022-11-22T18:16:28.383Z,98924.50
2022-11-22T18:18:57.803Z,98944.47
2022-11-22T18:21:26.050Z,98941.41
2022-11-22T18:23:53.146Z,98932.38
2022-11-22T18:29:39.051Z,98939.03
2022-11-22T18:31:57.033Z,98954.06
2022-11-22T18:34:24.229Z,98934.47
2022-11-22T18:36:57.456Z,98943.06
2022-11-22T18:39:30.326Z,98947.59
2022-11-22T18:41:57.702Z,98930.63
2022-11-22T18:44:24.877Z,98958.38
2022-11-22T18:46:52.012Z,98949.97
2022-11-22T18:49:19.183Z,98961.66
2022-11-22T18:51:46.312Z,98964.81
2022-11-22T18:54:13.551Z,98967.16
2022-11-22T18:56:41.100Z,98943.06
2022-11-22T18:59:12.607Z,98951.31
2022-11-22T19:01:40.825Z,98956.78
2022-11-22T19:04:09.937Z,98947.06
2022-11-22T19:06:36.926Z,98937.25
2022-11-22T19:09:03.964Z,98962.72
2022-11-22T19:11:32.248Z,98963.44
2022-11-22T19:13:59.758Z,98956.09
2022-11-22T19:16:29.659Z,98946.22
2022-11-22T19:18:57.828Z,98951.56
2022-11-22T19:21:26.887Z,98942.16
2022-11-22T19:23:56.422Z,98938.63
2022-11-22T19:26:25.739Z,98938.13
2022-11-22T19:28:57.753Z,98942.16
2022-11-22T19:31:29.616Z,98926.34
2022-11-22T19:33:57.239Z,98924.50
2022-11-22T19:36:32.141Z,98921.94
2022-11-22T19:39:01.056Z,98924.94
2022-11-22T19:41:28.069Z,98929.59
2022-11-22T19:43:56.426Z,98922.34
2022-11-22T19:46:24.560Z,98931.13
2022-11-22T19:48:52.844Z,98930.63
2022-11-22T19:51:20.326Z,98930.78
2022-11-22T19:53:47.897Z,98931.44
2022-11-22T19:56:17.062Z,98926.81
2022-11-22T19:58:44.936Z,98933.19
2022-11-22T20:01:14.450Z,98903.91
2022-11-22T20:03:42.864Z,98909.03
2022-11-22T20:06:12.231Z,98914.53
2022-11-22T20:08:39.474Z,98924.47
2022-11-22T20:11:11.874Z,98922.53
2022-11-22T20:13:41.743Z,98927.06
2022-11-22T20:16:14.110Z,98913.34
2022-11-22T20:18:41.485Z,98928.66
2022-11-22T20:21:10.421Z,98931.25
2022-11-22T20:23:38.439Z,98942.34
2022-11-22T20:26:10.839Z,98933.84
2022-11-22T20:28:39.110Z,98932.19
2022-11-22T20:31:17.902Z,98941.66
2022-11-22T20:33:47.351Z,98935.63
2022-11-22T20:36:16.666Z,98936.72
2022-11-22T20:38:45.044Z,98943.78
2022-11-22T20:41:14.200Z,98944.03
2022-11-22T20:43:41.457Z,98946.63
2022-11-22T20:46:11.112Z,98942.84
2022-11-22T20:48:40.033Z,98939.22
2022-11-22T20:51:10.147Z,98936.44
2022-11-22T20:53:37.697Z,98948.69
2022-11-22T20:56:05.386Z,98938.78
2022-11-22T20:58:32.528Z,98931.19
2022-11-22T21:01:00.004Z,98938.16
2022-11-22T21:03:27.429Z,98933.19
2022-11-22T21:05:55.487Z,98931.53
2022-11-22T21:08:23.153Z,98933.75
2022-11-22T21:10:50.138Z,98927.50
2022-11-22T21:13:17.669Z,98923.78
2022-11-22T21:15:44.955Z,98913.63
2022-11-22T21:18:27.610Z,98932.75
2022-11-22T21:20:54.644Z,98909.75
2022-11-22T21:23:21.725Z,98925.22
2022-11-22T21:25:50.550Z,98926.16
2022-11-22T21:28:17.655Z,98919.41
2022-11-22T21:30:44.908Z,98916.00
2022-11-22T21:33:11.888Z,98914.81
2022-11-22T21:35:38.857Z,98912.66
2022-11-22T21:38:05.835Z,98887.56
2022-11-22T21:40:32.951Z,98905.50
2022-11-22T21:42:59.985Z,98904.19
2022-11-22T21:45:26.970Z,98905.47
2022-11-22T21:47:53.947Z,98897.56
2022-11-22T21:50:21.007Z,98913.78
2022-11-22T21:52:47.992Z,98901.13
2022-11-22T21:55:15.578Z,98900.53
2022-11-22T21:57:42.533Z,98912.06
2022-11-22T22:00:10.422Z,98905.22
2022-11-22T22:02:39.343Z,98907.97
2022-11-22T22:05:06.654Z,98919.00
2022-11-22T22:07:52.098Z,98913.63
2022-11-22T22:10:20.192Z,98909.44
2022-11-22T22:12:50.462Z,98910.31
2022-11-22T22:15:18.467Z,98906.22
2022-11-22T22:17:45.790Z,98892.56
2022-11-22T22:20:13.274Z,98898.06
2022-11-22T22:22:40.259Z,98895.34
2022-11-22T22:25:07.741Z,98896.41
2022-11-22T22:27:35.083Z,98898.53
2022-11-22T22:30:02.075Z,98885.44
2022-11-22T22:32:31.149Z,98880.81
2022-11-22T22:34:58.133Z,98871.34
2022-11-22T22:37:25.126Z,98870.03
2022-11-22T22:39:52.176Z,98856.28
2022-11-22T22:42:19.894Z,98860.22
2022-11-22T22:44:47.521Z,98874.41
2022-11-22T22:47:14.689Z,98882.88
2022-11-22T22:49:41.771Z,98862.59
2022-11-22T22:52:08.747Z,98871.22
2022-11-22T22:54:36.104Z,98874.59
2022-11-22T22:57:03.332Z,98877.53
2022-11-22T22:59:30.748Z,98881.44
2022-11-22T23:01:58.080Z,98868.72
2022-11-22T23:04:25.061Z,98879.34
2022-11-22T23:06:52.024Z,98872.41
2022-11-22T23:10:33.204Z,98868.47
2022-11-22T23:13:00.302Z,98858.31
2022-11-22T23:15:50.803Z,98862.72
2022-11-22T23:18:14.399Z,98872.78
2022-11-22T23:20:41.388Z,98863.13
2022-11-22T23:23:08.373Z,98860.03
2022-11-22T23:25:35.451Z,98857.72
2022-11-22T23:28:02.420Z,98870.44
2022-11-22T23:30:29.384Z,98871.09
2022-11-22T23:32:56.377Z,98865.31
2022-11-22T23:35:23.373Z,98853.22
2022-11-22T23:37:50.378Z,98869.59
2022-11-22T23:40:17.371Z,98868.19
2022-11-22T23:42:44.574Z,98857.75
2022-11-22T23:45:11.594Z,98866.69
2022-11-22T23:47:38.692Z,98858.56
2022-11-22T23:50:06.084Z,98861.03
2022-11-22T23:52:33.164Z,98853.78
2022-11-22T23:55:00.180Z,98856.09
2022-11-22T23:57:27.201Z,98854.78
2022-11-22T23:59:54.190Z,98853.88
